sensor_id;sensor_type;location;lat;lon;timestamp;P1;durP1;ratioP1;P2;durP2;ratioP2
75171;SDS011;63750;52.418;20.742;2023-09-19T00:00:20;13.60;;;11.70;;
75171;SDS011;63750;52.418;20.742;2023-09-19T00:02:47;15.20;;;11.90;;
75171;SDS011;63750;52.418;20.742;2023-09-19T00:05:18;14.30;;;10.80;;
75171;SDS011;63750;52.418;20.742;2023-09-19T00:07:44;15.10;;;12.40;;
75171;SDS011;63750;52.418;20.742;2023-09-19T00:10:11;13.60;;;11.50;;
75171;SDS011;63750;52.418;20.742;2023-09-19T00:12:37;14.30;;;11.80;;
75171;SDS011;63750;52.418;20.742;2023-09-19T00:15:09;14.50;;;12.00;;
75171;SDS011;63750;52.418;20.742;2023-09-19T00:17:35;13.50;;;11.50;;
75171;SDS011;63750;52.418;20.742;2023-09-19T00:20:02;14.70;;;11.50;;
75171;SDS011;63750;52.418;20.742;2023-09-19T00:22:29;14.20;;;11.90;;
75171;SDS011;63750;52.418;20.742;2023-09-19T00:24:55;15.10;;;11.90;;
75171;SDS011;63750;52.418;20.742;2023-09-19T00:27:22;15.40;;;12.50;;
75171;SDS011;63750;52.418;20.742;2023-09-19T00:29:49;15.50;;;11.90;;
75171;SDS011;63750;52.418;20.742;2023-09-19T00:32:15;15.10;;;11.80;;
75171;SDS011;63750;52.418;20.742;2023-09-19T00:34:42;15.20;;;13.00;;
75171;SDS011;63750;52.418;20.742;2023-09-19T00:37:08;14.90;;;12.20;;
75171;SDS011;63750;52.418;20.742;2023-09-19T00:39:35;15.60;;;12.10;;
75171;SDS011;63750;52.418;20.742;2023-09-19T00:42:01;15.70;;;12.40;;
75171;SDS011;63750;52.418;20.742;2023-09-19T00:44:28;16.00;;;12.30;;
75171;SDS011;63750;52.418;20.742;2023-09-19T00:46:54;13.80;;;12.10;;
75171;SDS011;63750;52.418;20.742;2023-09-19T00:49:21;15.70;;;12.00;;
75171;SDS011;63750;52.418;20.742;2023-09-19T00:51:48;14.70;;;12.50;;
75171;SDS011;63750;52.418;20.742;2023-09-19T00:54:14;15.00;;;12.30;;
75171;SDS011;63750;52.418;20.742;2023-09-19T00:56:41;15.20;;;12.40;;
75171;SDS011;63750;52.418;20.742;2023-09-19T00:59:08;14.10;;;12.60;;
75171;SDS011;63750;52.418;20.742;2023-09-19T01:01:34;15.80;;;12.60;;
75171;SDS011;63750;52.418;20.742;2023-09-19T01:04:01;15.70;;;12.90;;
75171;SDS011;63750;52.418;20.742;2023-09-19T01:06:27;16.70;;;12.90;;
75171;SDS011;63750;52.418;20.742;2023-09-19T01:08:54;15.10;;;12.60;;
75171;SDS011;63750;52.418;20.742;2023-09-19T01:11:21;15.10;;;11.90;;
75171;SDS011;63750;52.418;20.742;2023-09-19T01:13:55;14.80;;;12.30;;
75171;SDS011;63750;52.418;20.742;2023-09-19T01:16:26;15.80;;;12.40;;
75171;SDS011;63750;52.418;20.742;2023-09-19T01:18:55;17.90;;;12.20;;
75171;SDS011;63750;52.418;20.742;2023-09-19T01:21:27;15.60;;;12.80;;
75171;SDS011;63750;52.418;20.742;2023-09-19T01:24:07;16.70;;;12.00;;
75171;SDS011;63750;52.418;20.742;2023-09-19T01:26:43;14.70;;;12.10;;
75171;SDS011;63750;52.418;20.742;2023-09-19T01:29:22;16.30;;;12.90;;
75171;SDS011;63750;52.418;20.742;2023-09-19T01:31:49;15.70;;;12.30;;
75171;SDS011;63750;52.418;20.742;2023-09-19T01:34:18;17.80;;;13.00;;
75171;SDS011;63750;52.418;20.742;2023-09-19T01:36:44;16.90;;;13.50;;
75171;SDS011;63750;52.418;20.742;2023-09-19T01:39:11;15.00;;;12.30;;
75171;SDS011;63750;52.418;20.742;2023-09-19T01:41:45;18.80;;;13.10;;
75171;SDS011;63750;52.418;20.742;2023-09-19T01:44:15;14.90;;;12.40;;
75171;SDS011;63750;52.418;20.742;2023-09-19T01:46:43;16.50;;;12.80;;
75171;SDS011;63750;52.418;20.742;2023-09-19T01:49:15;14.90;;;12.60;;
75171;SDS011;63750;52.418;20.742;2023-09-19T01:51:46;16.70;;;13.00;;
75171;SDS011;63750;52.418;20.742;2023-09-19T01:54:18;16.90;;;12.70;;
75171;SDS011;63750;52.418;20.742;2023-09-19T01:56:49;16.70;;;12.50;;
75171;SDS011;63750;52.418;20.742;2023-09-19T01:59:17;13.40;;;11.70;;
75171;SDS011;63750;52.418;20.742;2023-09-19T02:01:47;16.80;;;12.70;;
75171;SDS011;63750;52.418;20.742;2023-09-19T02:04:14;15.70;;;12.70;;
75171;SDS011;63750;52.418;20.742;2023-09-19T02:06:41;16.40;;;12.50;;
75171;SDS011;63750;52.418;20.742;2023-09-19T02:09:07;15.60;;;12.60;;
75171;SDS011;63750;52.418;20.742;2023-09-19T02:11:34;14.80;;;11.80;;
75171;SDS011;63750;52.418;20.742;2023-09-19T02:14:01;14.60;;;12.20;;
75171;SDS011;63750;52.418;20.742;2023-09-19T02:16:27;15.00;;;12.40;;
75171;SDS011;63750;52.418;20.742;2023-09-19T02:18:54;17.60;;;12.80;;
75171;SDS011;63750;52.418;20.742;2023-09-19T02:21:20;17.00;;;12.50;;
75171;SDS011;63750;52.418;20.742;2023-09-19T02:23:47;16.80;;;12.30;;
75171;SDS011;63750;52.418;20.742;2023-09-19T02:26:13;16.80;;;13.40;;
75171;SDS011;63750;52.418;20.742;2023-09-19T02:28:40;17.30;;;13.20;;
75171;SDS011;63750;52.418;20.742;2023-09-19T02:31:06;17.10;;;13.00;;
75171;SDS011;63750;52.418;20.742;2023-09-19T02:33:33;15.80;;;12.90;;
75171;SDS011;63750;52.418;20.742;2023-09-19T02:36:00;16.70;;;12.60;;
75171;SDS011;63750;52.418;20.742;2023-09-19T02:38:26;17.60;;;13.90;;
75171;SDS011;63750;52.418;20.742;2023-09-19T02:40:53;15.30;;;12.60;;
75171;SDS011;63750;52.418;20.742;2023-09-19T02:43:19;15.00;;;13.00;;
75171;SDS011;63750;52.418;20.742;2023-09-19T02:45:46;15.40;;;12.70;;
75171;SDS011;63750;52.418;20.742;2023-09-19T02:48:12;15.60;;;12.50;;
75171;SDS011;63750;52.418;20.742;2023-09-19T02:50:39;16.30;;;13.20;;
75171;SDS011;63750;52.418;20.742;2023-09-19T02:53:05;14.70;;;13.10;;
75171;SDS011;63750;52.418;20.742;2023-09-19T02:55:32;17.40;;;13.60;;
75171;SDS011;63750;52.418;20.742;2023-09-19T02:57:59;16.10;;;13.20;;
75171;SDS011;63750;52.418;20.742;2023-09-19T03:00:25;17.40;;;13.60;;
75171;SDS011;63750;52.418;20.742;2023-09-19T03:02:53;15.90;;;13.30;;
75171;SDS011;63750;52.418;20.742;2023-09-19T03:05:20;16.80;;;12.50;;
75171;SDS011;63750;52.418;20.742;2023-09-19T03:07:47;15.50;;;13.60;;
75171;SDS011;63750;52.418;20.742;2023-09-19T03:10:13;17.20;;;14.60;;
75171;SDS011;63750;52.418;20.742;2023-09-19T03:12:40;15.40;;;13.10;;
75171;SDS011;63750;52.418;20.742;2023-09-19T03:15:07;15.70;;;12.90;;
75171;SDS011;63750;52.418;20.742;2023-09-19T03:17:33;16.20;;;13.40;;
75171;SDS011;63750;52.418;20.742;2023-09-19T03:20:00;16.80;;;12.90;;
75171;SDS011;63750;52.418;20.742;2023-09-19T03:22:27;15.20;;;13.20;;
75171;SDS011;63750;52.418;20.742;2023-09-19T03:24:54;15.90;;;12.90;;
75171;SDS011;63750;52.418;20.742;2023-09-19T03:27:20;17.00;;;13.80;;
75171;SDS011;63750;52.418;20.742;2023-09-19T03:29:47;17.90;;;13.20;;
75171;SDS011;63750;52.418;20.742;2023-09-19T03:32:13;16.50;;;13.10;;
75171;SDS011;63750;52.418;20.742;2023-09-19T03:34:40;17.10;;;13.40;;
75171;SDS011;63750;52.418;20.742;2023-09-19T03:37:07;16.50;;;12.30;;
75171;SDS011;63750;52.418;20.742;2023-09-19T03:39:33;16.70;;;12.90;;
75171;SDS011;63750;52.418;20.742;2023-09-19T03:42:00;16.40;;;13.20;;
75171;SDS011;63750;52.418;20.742;2023-09-19T03:44:26;15.90;;;12.50;;
75171;SDS011;63750;52.418;20.742;2023-09-19T03:46:53;17.10;;;13.00;;
75171;SDS011;63750;52.418;20.742;2023-09-19T03:49:20;16.20;;;12.70;;
75171;SDS011;63750;52.418;20.742;2023-09-19T03:51:46;16.00;;;13.50;;
75171;SDS011;63750;52.418;20.742;2023-09-19T03:54:13;16.70;;;13.50;;
75171;SDS011;63750;52.418;20.742;2023-09-19T03:56:39;16.80;;;14.10;;
75171;SDS011;63750;52.418;20.742;2023-09-19T03:59:06;16.60;;;13.40;;
75171;SDS011;63750;52.418;20.742;2023-09-19T04:01:32;16.90;;;13.50;;
75171;SDS011;63750;52.418;20.742;2023-09-19T04:03:59;16.00;;;12.70;;
75171;SDS011;63750;52.418;20.742;2023-09-19T04:06:25;16.10;;;13.10;;
75171;SDS011;63750;52.418;20.742;2023-09-19T04:08:52;16.30;;;12.60;;
75171;SDS011;63750;52.418;20.742;2023-09-19T04:11:19;15.80;;;13.40;;
75171;SDS011;63750;52.418;20.742;2023-09-19T04:13:45;18.60;;;13.20;;
75171;SDS011;63750;52.418;20.742;2023-09-19T04:16:12;15.40;;;12.60;;
75171;SDS011;63750;52.418;20.742;2023-09-19T04:18:38;16.40;;;13.80;;
75171;SDS011;63750;52.418;20.742;2023-09-19T04:21:05;18.90;;;14.00;;
75171;SDS011;63750;52.418;20.742;2023-09-19T04:23:31;17.80;;;13.00;;
75171;SDS011;63750;52.418;20.742;2023-09-19T04:25:58;17.50;;;14.20;;
75171;SDS011;63750;52.418;20.742;2023-09-19T04:28:24;16.70;;;14.10;;
75171;SDS011;63750;52.418;20.742;2023-09-19T04:30:51;18.40;;;14.20;;
75171;SDS011;63750;52.418;20.742;2023-09-19T04:33:18;17.30;;;13.50;;
75171;SDS011;63750;52.418;20.742;2023-09-19T04:35:44;20.50;;;13.70;;
75171;SDS011;63750;52.418;20.742;2023-09-19T04:38:11;16.30;;;12.60;;
75171;SDS011;63750;52.418;20.742;2023-09-19T04:40:37;17.80;;;14.00;;
75171;SDS011;63750;52.418;20.742;2023-09-19T04:43:04;18.00;;;13.30;;
75171;SDS011;63750;52.418;20.742;2023-09-19T04:45:30;17.80;;;14.30;;
75171;SDS011;63750;52.418;20.742;2023-09-19T04:47:57;15.60;;;13.10;;
75171;SDS011;63750;52.418;20.742;2023-09-19T04:50:23;17.20;;;13.20;;
75171;SDS011;63750;52.418;20.742;2023-09-19T04:52:50;15.60;;;13.80;;
75171;SDS011;63750;52.418;20.742;2023-09-19T04:55:17;18.30;;;13.40;;
75171;SDS011;63750;52.418;20.742;2023-09-19T04:57:44;18.30;;;14.20;;
75171;SDS011;63750;52.418;20.742;2023-09-19T05:00:12;18.20;;;14.20;;
75171;SDS011;63750;52.418;20.742;2023-09-19T05:02:39;14.50;;;12.50;;
75171;SDS011;63750;52.418;20.742;2023-09-19T05:05:06;17.10;;;12.70;;
75171;SDS011;63750;52.418;20.742;2023-09-19T05:07:33;16.40;;;13.20;;
75171;SDS011;63750;52.418;20.742;2023-09-19T05:10:00;18.50;;;13.30;;
75171;SDS011;63750;52.418;20.742;2023-09-19T05:12:27;15.80;;;13.80;;
75171;SDS011;63750;52.418;20.742;2023-09-19T05:14:53;16.10;;;13.40;;
75171;SDS011;63750;52.418;20.742;2023-09-19T05:17:20;17.40;;;13.80;;
75171;SDS011;63750;52.418;20.742;2023-09-19T05:19:46;16.30;;;13.80;;
75171;SDS011;63750;52.418;20.742;2023-09-19T05:22:13;15.50;;;12.00;;
75171;SDS011;63750;52.418;20.742;2023-09-19T05:24:39;16.20;;;13.80;;
75171;SDS011;63750;52.418;20.742;2023-09-19T05:27:06;17.50;;;13.50;;
75171;SDS011;63750;52.418;20.742;2023-09-19T05:29:33;16.80;;;12.80;;
75171;SDS011;63750;52.418;20.742;2023-09-19T05:31:59;14.20;;;12.40;;
75171;SDS011;63750;52.418;20.742;2023-09-19T05:34:26;14.70;;;13.10;;
75171;SDS011;63750;52.418;20.742;2023-09-19T05:36:52;15.70;;;13.10;;
75171;SDS011;63750;52.418;20.742;2023-09-19T05:39:19;17.80;;;13.40;;
75171;SDS011;63750;52.418;20.742;2023-09-19T05:41:45;16.30;;;12.90;;
75171;SDS011;63750;52.418;20.742;2023-09-19T05:44:12;14.50;;;12.40;;
75171;SDS011;63750;52.418;20.742;2023-09-19T05:46:39;18.10;;;13.30;;
75171;SDS011;63750;52.418;20.742;2023-09-19T05:49:05;15.10;;;12.60;;
75171;SDS011;63750;52.418;20.742;2023-09-19T05:51:32;16.10;;;12.50;;
75171;SDS011;63750;52.418;20.742;2023-09-19T05:53:58;14.20;;;12.50;;
75171;SDS011;63750;52.418;20.742;2023-09-19T05:56:25;14.80;;;12.80;;
75171;SDS011;63750;52.418;20.742;2023-09-19T05:58:52;13.80;;;12.30;;
75171;SDS011;63750;52.418;20.742;2023-09-19T06:01:18;15.30;;;12.00;;
75171;SDS011;63750;52.418;20.742;2023-09-19T06:03:45;14.50;;;12.60;;
75171;SDS011;63750;52.418;20.742;2023-09-19T06:06:12;15.50;;;13.60;;
75171;SDS011;63750;52.418;20.742;2023-09-19T06:08:38;17.30;;;13.50;;
75171;SDS011;63750;52.418;20.742;2023-09-19T06:11:05;17.10;;;12.60;;
75171;SDS011;63750;52.418;20.742;2023-09-19T06:13:31;16.00;;;12.40;;
75171;SDS011;63750;52.418;20.742;2023-09-19T06:15:58;17.40;;;12.30;;
75171;SDS011;63750;52.418;20.742;2023-09-19T06:18:24;15.40;;;12.00;;
75171;SDS011;63750;52.418;20.742;2023-09-19T06:20:51;14.20;;;11.80;;
75171;SDS011;63750;52.418;20.742;2023-09-19T06:23:18;14.20;;;11.70;;
75171;SDS011;63750;52.418;20.742;2023-09-19T06:25:46;17.10;;;13.10;;
75171;SDS011;63750;52.418;20.742;2023-09-19T06:28:13;13.80;;;12.40;;
75171;SDS011;63750;52.418;20.742;2023-09-19T06:30:39;16.40;;;12.50;;
75171;SDS011;63750;52.418;20.742;2023-09-19T06:33:06;14.20;;;11.70;;
75171;SDS011;63750;52.418;20.742;2023-09-19T06:35:33;15.40;;;12.90;;
75171;SDS011;63750;52.418;20.742;2023-09-19T06:38:01;13.90;;;12.40;;
75171;SDS011;63750;52.418;20.742;2023-09-19T06:40:28;16.40;;;13.00;;
75171;SDS011;63750;52.418;20.742;2023-09-19T06:42:55;14.60;;;12.50;;
75171;SDS011;63750;52.418;20.742;2023-09-19T06:45:21;15.90;;;12.40;;
75171;SDS011;63750;52.418;20.742;2023-09-19T06:47:48;15.60;;;13.80;;
75171;SDS011;63750;52.418;20.742;2023-09-19T06:50:15;15.00;;;12.00;;
75171;SDS011;63750;52.418;20.742;2023-09-19T06:52:42;14.20;;;12.00;;
75171;SDS011;63750;52.418;20.742;2023-09-19T06:55:09;15.00;;;13.40;;
75171;SDS011;63750;52.418;20.742;2023-09-19T06:57:35;13.90;;;12.20;;
75171;SDS011;63750;52.418;20.742;2023-09-19T07:00:02;13.80;;;11.90;;
75171;SDS011;63750;52.418;20.742;2023-09-19T07:02:28;17.10;;;14.90;;
75171;SDS011;63750;52.418;20.742;2023-09-19T07:04:55;16.30;;;14.30;;
75171;SDS011;63750;52.418;20.742;2023-09-19T07:07:21;17.00;;;14.50;;
75171;SDS011;63750;52.418;20.742;2023-09-19T07:09:48;17.80;;;14.90;;
75171;SDS011;63750;52.418;20.742;2023-09-19T07:12:14;15.20;;;13.60;;
75171;SDS011;63750;52.418;20.742;2023-09-19T07:14:41;17.30;;;15.00;;
75171;SDS011;63750;52.418;20.742;2023-09-19T07:17:08;14.50;;;12.30;;
75171;SDS011;63750;52.418;20.742;2023-09-19T07:19:34;17.70;;;15.30;;
75171;SDS011;63750;52.418;20.742;2023-09-19T07:22:01;18.70;;;16.20;;
75171;SDS011;63750;52.418;20.742;2023-09-19T07:24:27;17.00;;;14.10;;
75171;SDS011;63750;52.418;20.742;2023-09-19T07:26:54;18.50;;;15.20;;
75171;SDS011;63750;52.418;20.742;2023-09-19T07:29:21;18.80;;;15.90;;
75171;SDS011;63750;52.418;20.742;2023-09-19T07:31:47;17.60;;;15.00;;
75171;SDS011;63750;52.418;20.742;2023-09-19T07:34:14;17.60;;;14.80;;
75171;SDS011;63750;52.418;20.742;2023-09-19T07:36:40;17.10;;;15.00;;
75171;SDS011;63750;52.418;20.742;2023-09-19T07:39:07;16.70;;;14.50;;
75171;SDS011;63750;52.418;20.742;2023-09-19T07:41:33;18.40;;;14.70;;
75171;SDS011;63750;52.418;20.742;2023-09-19T07:44:00;19.00;;;14.90;;
75171;SDS011;63750;52.418;20.742;2023-09-19T07:46:26;19.30;;;15.60;;
75171;SDS011;63750;52.418;20.742;2023-09-19T07:48:53;19.60;;;15.80;;
75171;SDS011;63750;52.418;20.742;2023-09-19T07:51:20;19.80;;;16.00;;
75171;SDS011;63750;52.418;20.742;2023-09-19T07:53:46;17.70;;;15.70;;
75171;SDS011;63750;52.418;20.742;2023-09-19T07:56:13;17.70;;;13.80;;
75171;SDS011;63750;52.418;20.742;2023-09-19T07:58:40;19.00;;;14.80;;
75171;SDS011;63750;52.418;20.742;2023-09-19T08:01:07;18.20;;;15.20;;
75171;SDS011;63750;52.418;20.742;2023-09-19T08:03:34;18.30;;;14.10;;
75171;SDS011;63750;52.418;20.742;2023-09-19T08:06:01;16.90;;;12.20;;
75171;SDS011;63750;52.418;20.742;2023-09-19T08:08:27;20.90;;;14.00;;
75171;SDS011;63750;52.418;20.742;2023-09-19T08:10:54;17.00;;;13.30;;
75171;SDS011;63750;52.418;20.742;2023-09-19T08:13:21;14.80;;;12.40;;
75171;SDS011;63750;52.418;20.742;2023-09-19T08:15:47;15.80;;;13.70;;
75171;SDS011;63750;52.418;20.742;2023-09-19T08:18:14;16.50;;;14.60;;
75171;SDS011;63750;52.418;20.742;2023-09-19T08:20:41;17.30;;;15.00;;
75171;SDS011;63750;52.418;20.742;2023-09-19T08:23:07;17.70;;;13.50;;
75171;SDS011;63750;52.418;20.742;2023-09-19T08:25:34;17.70;;;13.30;;
75171;SDS011;63750;52.418;20.742;2023-09-19T08:28:01;15.30;;;12.90;;
75171;SDS011;63750;52.418;20.742;2023-09-19T08:30:27;15.80;;;13.60;;
75171;SDS011;63750;52.418;20.742;2023-09-19T08:32:57;15.50;;;13.10;;
75171;SDS011;63750;52.418;20.742;2023-09-19T08:35:24;17.70;;;13.80;;
75171;SDS011;63750;52.418;20.742;2023-09-19T08:37:51;17.10;;;12.40;;
75171;SDS011;63750;52.418;20.742;2023-09-19T08:40:17;16.50;;;13.30;;
75171;SDS011;63750;52.418;20.742;2023-09-19T08:42:50;16.60;;;12.60;;
75171;SDS011;63750;52.418;20.742;2023-09-19T08:45:17;14.90;;;12.70;;
75171;SDS011;63750;52.418;20.742;2023-09-19T08:47:49;16.30;;;12.80;;
75171;SDS011;63750;52.418;20.742;2023-09-19T08:50:19;15.50;;;12.40;;
75171;SDS011;63750;52.418;20.742;2023-09-19T08:52:46;15.20;;;12.60;;
75171;SDS011;63750;52.418;20.742;2023-09-19T08:55:13;15.30;;;12.80;;
75171;SDS011;63750;52.418;20.742;2023-09-19T08:57:40;14.50;;;12.20;;
75171;SDS011;63750;52.418;20.742;2023-09-19T09:00:08;16.90;;;12.60;;
75171;SDS011;63750;52.418;20.742;2023-09-19T09:02:35;16.20;;;12.90;;
75171;SDS011;63750;52.418;20.742;2023-09-19T09:05:03;18.70;;;12.80;;
75171;SDS011;63750;52.418;20.742;2023-09-19T09:07:30;18.40;;;12.20;;
75171;SDS011;63750;52.418;20.742;2023-09-19T09:09:57;16.00;;;13.30;;
75171;SDS011;63750;52.418;20.742;2023-09-19T09:12:24;17.20;;;13.00;;
75171;SDS011;63750;52.418;20.742;2023-09-19T09:14:51;15.10;;;13.00;;
75171;SDS011;63750;52.418;20.742;2023-09-19T09:17:17;18.20;;;13.10;;
75171;SDS011;63750;52.418;20.742;2023-09-19T09:19:44;16.00;;;13.50;;
75171;SDS011;63750;52.418;20.742;2023-09-19T09:22:11;15.90;;;12.50;;
75171;SDS011;63750;52.418;20.742;2023-09-19T09:24:38;15.50;;;12.60;;
75171;SDS011;63750;52.418;20.742;2023-09-19T09:27:17;14.70;;;12.10;;
75171;SDS011;63750;52.418;20.742;2023-09-19T09:29:43;17.30;;;11.90;;
75171;SDS011;63750;52.418;20.742;2023-09-19T09:32:20;18.20;;;12.50;;
75171;SDS011;63750;52.418;20.742;2023-09-19T09:34:48;16.20;;;12.50;;
75171;SDS011;63750;52.418;20.742;2023-09-19T09:37:15;15.30;;;12.00;;
75171;SDS011;63750;52.418;20.742;2023-09-19T09:39:42;17.50;;;12.80;;
75171;SDS011;63750;52.418;20.742;2023-09-19T09:42:16;18.80;;;13.20;;
75171;SDS011;63750;52.418;20.742;2023-09-19T09:44:58;13.30;;;11.00;;
75171;SDS011;63750;52.418;20.742;2023-09-19T09:47:42;14.10;;;10.80;;
75171;SDS011;63750;52.418;20.742;2023-09-19T09:50:09;12.40;;;10.70;;
75171;SDS011;63750;52.418;20.742;2023-09-19T09:52:45;14.00;;;11.50;;
75171;SDS011;63750;52.418;20.742;2023-09-19T09:55:12;13.20;;;10.80;;
75171;SDS011;63750;52.418;20.742;2023-09-19T09:57:38;13.40;;;10.50;;
75171;SDS011;63750;52.418;20.742;2023-09-19T10:00:06;13.50;;;10.30;;
75171;SDS011;63750;52.418;20.742;2023-09-19T10:02:35;11.50;;;10.30;;
75171;SDS011;63750;52.418;20.742;2023-09-19T10:05:03;10.30;;;9.20;;
75171;SDS011;63750;52.418;20.742;2023-09-19T10:07:37;11.00;;;9.90;;
75171;SDS011;63750;52.418;20.742;2023-09-19T10:10:04;12.20;;;9.80;;
75171;SDS011;63750;52.418;20.742;2023-09-19T10:12:31;12.10;;;10.20;;
75171;SDS011;63750;52.418;20.742;2023-09-19T10:14:57;13.00;;;10.30;;
75171;SDS011;63750;52.418;20.742;2023-09-19T10:17:26;11.10;;;9.30;;
75171;SDS011;63750;52.418;20.742;2023-09-19T10:19:54;11.00;;;8.80;;
75171;SDS011;63750;52.418;20.742;2023-09-19T10:22:21;10.90;;;9.00;;
75171;SDS011;63750;52.418;20.742;2023-09-19T10:24:48;9.30;;;8.30;;
75171;SDS011;63750;52.418;20.742;2023-09-19T10:27:15;9.80;;;8.30;;
75171;SDS011;63750;52.418;20.742;2023-09-19T10:29:42;11.10;;;7.90;;
75171;SDS011;63750;52.418;20.742;2023-09-19T10:32:10;10.00;;;7.90;;
75171;SDS011;63750;52.418;20.742;2023-09-19T10:34:37;10.60;;;8.10;;
75171;SDS011;63750;52.418;20.742;2023-09-19T10:37:05;10.00;;;8.50;;
75171;SDS011;63750;52.418;20.742;2023-09-19T10:39:32;10.00;;;7.90;;
75171;SDS011;63750;52.418;20.742;2023-09-19T10:42:02;10.40;;;7.90;;
75171;SDS011;63750;52.418;20.742;2023-09-19T10:44:29;9.40;;;8.10;;
75171;SDS011;63750;52.418;20.742;2023-09-19T10:46:58;10.90;;;8.10;;
75171;SDS011;63750;52.418;20.742;2023-09-19T10:49:24;9.40;;;8.00;;
75171;SDS011;63750;52.418;20.742;2023-09-19T10:51:52;9.10;;;6.90;;
75171;SDS011;63750;52.418;20.742;2023-09-19T10:54:19;9.60;;;7.20;;
75171;SDS011;63750;52.418;20.742;2023-09-19T10:56:48;8.20;;;7.00;;
75171;SDS011;63750;52.418;20.742;2023-09-19T10:59:15;7.40;;;6.70;;
75171;SDS011;63750;52.418;20.742;2023-09-19T11:01:46;7.90;;;7.00;;
75171;SDS011;63750;52.418;20.742;2023-09-19T11:04:22;8.50;;;7.40;;
75171;SDS011;63750;52.418;20.742;2023-09-19T11:06:59;7.60;;;6.80;;
75171;SDS011;63750;52.418;20.742;2023-09-19T11:09:26;8.70;;;7.80;;
75171;SDS011;63750;52.418;20.742;2023-09-19T11:12:08;9.40;;;8.10;;
75171;SDS011;63750;52.418;20.742;2023-09-19T11:14:38;9.90;;;7.50;;
75171;SDS011;63750;52.418;20.742;2023-09-19T11:22:39;10.40;;;7.70;;
75171;SDS011;63750;52.418;20.742;2023-09-19T11:25:42;10.20;;;7.80;;
75171;SDS011;63750;52.418;20.742;2023-09-19T11:30:53;9.00;;;7.60;;
75171;SDS011;63750;52.418;20.742;2023-09-19T11:33:20;8.40;;;7.10;;
75171;SDS011;63750;52.418;20.742;2023-09-19T11:35:59;11.20;;;7.90;;
75171;SDS011;63750;52.418;20.742;2023-09-19T11:43:51;7.20;;;6.20;;
75171;SDS011;63750;52.418;20.742;2023-09-19T11:46:18;8.40;;;6.70;;
75171;SDS011;63750;52.418;20.742;2023-09-19T11:48:44;8.10;;;7.00;;
75171;SDS011;63750;52.418;20.742;2023-09-19T11:51:14;9.80;;;8.20;;
75171;SDS011;63750;52.418;20.742;2023-09-19T11:53:41;8.90;;;6.90;;
75171;SDS011;63750;52.418;20.742;2023-09-19T11:56:08;8.30;;;7.00;;
75171;SDS011;63750;52.418;20.742;2023-09-19T11:58:35;10.30;;;7.00;;
75171;SDS011;63750;52.418;20.742;2023-09-19T12:01:02;10.50;;;7.50;;
75171;SDS011;63750;52.418;20.742;2023-09-19T12:03:30;7.00;;;6.30;;
75171;SDS011;63750;52.418;20.742;2023-09-19T12:05:57;8.20;;;6.70;;
75171;SDS011;63750;52.418;20.742;2023-09-19T12:08:24;8.20;;;7.40;;
75171;SDS011;63750;52.418;20.742;2023-09-19T12:10:50;7.80;;;6.30;;
75171;SDS011;63750;52.418;20.742;2023-09-19T12:13:17;7.20;;;5.90;;
75171;SDS011;63750;52.418;20.742;2023-09-19T12:15:44;7.00;;;6.30;;
75171;SDS011;63750;52.418;20.742;2023-09-19T12:18:12;7.60;;;6.70;;
75171;SDS011;63750;52.418;20.742;2023-09-19T12:20:51;9.00;;;6.90;;
75171;SDS011;63750;52.418;20.742;2023-09-19T12:23:18;7.80;;;6.90;;
75171;SDS011;63750;52.418;20.742;2023-09-19T12:25:44;8.00;;;7.20;;
75171;SDS011;63750;52.418;20.742;2023-09-19T12:28:12;8.60;;;7.20;;
75171;SDS011;63750;52.418;20.742;2023-09-19T12:30:38;8.20;;;6.80;;
75171;SDS011;63750;52.418;20.742;2023-09-19T12:33:05;7.90;;;6.70;;
75171;SDS011;63750;52.418;20.742;2023-09-19T12:35:32;8.20;;;7.20;;
75171;SDS011;63750;52.418;20.742;2023-09-19T12:37:59;7.70;;;6.70;;
75171;SDS011;63750;52.418;20.742;2023-09-19T12:40:25;7.10;;;6.00;;
75171;SDS011;63750;52.418;20.742;2023-09-19T12:42:52;8.40;;;6.70;;
75171;SDS011;63750;52.418;20.742;2023-09-19T12:45:19;7.20;;;6.30;;
75171;SDS011;63750;52.418;20.742;2023-09-19T12:50:30;7.60;;;6.40;;
75171;SDS011;63750;52.418;20.742;2023-09-19T12:52:56;8.40;;;6.80;;
75171;SDS011;63750;52.418;20.742;2023-09-19T12:55:24;7.00;;;5.90;;
75171;SDS011;63750;52.418;20.742;2023-09-19T12:58:11;7.90;;;5.90;;
75171;SDS011;63750;52.418;20.742;2023-09-19T13:00:38;7.40;;;6.10;;
75171;SDS011;63750;52.418;20.742;2023-09-19T13:03:16;7.10;;;5.90;;
75171;SDS011;63750;52.418;20.742;2023-09-19T13:05:52;7.40;;;6.10;;
75171;SDS011;63750;52.418;20.742;2023-09-19T13:08:20;7.30;;;6.60;;
75171;SDS011;63750;52.418;20.742;2023-09-19T13:13:27;8.10;;;7.30;;
75171;SDS011;63750;52.418;20.742;2023-09-19T13:15:53;7.30;;;5.90;;
75171;SDS011;63750;52.418;20.742;2023-09-19T13:18:20;7.90;;;6.80;;
75171;SDS011;63750;52.418;20.742;2023-09-19T13:20:53;6.60;;;5.90;;
75171;SDS011;63750;52.418;20.742;2023-09-19T13:23:31;6.90;;;6.20;;
75171;SDS011;63750;52.418;20.742;2023-09-19T13:25:58;7.50;;;6.80;;
75171;SDS011;63750;52.418;20.742;2023-09-19T13:28:24;7.00;;;6.30;;
75171;SDS011;63750;52.418;20.742;2023-09-19T13:30:53;7.30;;;6.00;;
75171;SDS011;63750;52.418;20.742;2023-09-19T13:33:20;8.40;;;6.90;;
75171;SDS011;63750;52.418;20.742;2023-09-19T13:35:46;7.00;;;6.30;;
75171;SDS011;63750;52.418;20.742;2023-09-19T13:38:13;7.60;;;6.10;;
75171;SDS011;63750;52.418;20.742;2023-09-19T13:40:40;8.80;;;7.20;;
75171;SDS011;63750;52.418;20.742;2023-09-19T13:43:07;7.70;;;6.80;;
75171;SDS011;63750;52.418;20.742;2023-09-19T13:45:33;6.30;;;5.70;;
75171;SDS011;63750;52.418;20.742;2023-09-19T13:48:00;8.30;;;7.40;;
75171;SDS011;63750;52.418;20.742;2023-09-19T13:50:27;8.50;;;6.30;;
75171;SDS011;63750;52.418;20.742;2023-09-19T13:52:53;7.10;;;6.40;;
75171;SDS011;63750;52.418;20.742;2023-09-19T13:55:20;8.70;;;6.90;;
75171;SDS011;63750;52.418;20.742;2023-09-19T13:57:47;7.20;;;6.50;;
75171;SDS011;63750;52.418;20.742;2023-09-19T14:00:14;7.30;;;6.60;;
75171;SDS011;63750;52.418;20.742;2023-09-19T14:02:40;10.20;;;7.20;;
75171;SDS011;63750;52.418;20.742;2023-09-19T14:05:07;8.20;;;7.40;;
75171;SDS011;63750;52.418;20.742;2023-09-19T14:07:34;9.40;;;8.40;;
75171;SDS011;63750;52.418;20.742;2023-09-19T14:10:00;9.50;;;8.60;;
75171;SDS011;63750;52.418;20.742;2023-09-19T14:12:27;10.20;;;9.20;;
75171;SDS011;63750;52.418;20.742;2023-09-19T14:14:54;11.20;;;10.10;;
75171;SDS011;63750;52.418;20.742;2023-09-19T14:17:20;10.30;;;9.30;;
75171;SDS011;63750;52.418;20.742;2023-09-19T14:19:47;9.50;;;8.60;;
75171;SDS011;63750;52.418;20.742;2023-09-19T14:22:13;9.60;;;8.10;;
75171;SDS011;63750;52.418;20.742;2023-09-19T14:24:40;8.00;;;7.30;;
75171;SDS011;63750;52.418;20.742;2023-09-19T14:27:06;7.90;;;7.20;;
75171;SDS011;63750;52.418;20.742;2023-09-19T14:29:33;8.60;;;7.70;;
75171;SDS011;63750;52.418;20.742;2023-09-19T14:31:59;9.60;;;8.60;;
75171;SDS011;63750;52.418;20.742;2023-09-19T14:34:26;8.80;;;7.90;;
75171;SDS011;63750;52.418;20.742;2023-09-19T14:36:52;9.60;;;8.70;;